KPTB/PTB METAR and TAF weather

Enter ICAO airport designator
Station Type Date Time Source
KPTB METAR 2019/02/16 07:15 UTC NOAA

KPTB 160715Z AUTO 27004KT 10SM -RA OVC070 13/07 A2979 RMK AO2 T01300069


Station Type Date Time Source
KPTB Decoded METAR 2019/02/16 07:15 UTC NOAA

Petersburg, Dinwiddie County Airport, VA, United States (KPTB) 37-11N 077-31W
Feb 16, 2019 - 02:15 AM EST / 2019.02.16 0715 UTC
Wind: from the W (270 degrees) at 5 MPH (4 KT):0
Visibility: 10 mile(s):0
Sky conditions: overcast
Weather: light rain
Temperature: 55.4 F (13.0 C)
Dew Point: 44.4 F (6.9 C)
Relative Humidity: 66%
Pressure (altimeter): 29.79 in. Hg (1008 hPa)
ob: KPTB 160715Z AUTO 27004KT 10SM -RA OVC070 13/07 A2979 RMK AO2 T01300069
cycle: 7

Station Type Date Time Source
KPTB TAF UTC NOAA

Error!


Example: see airport list